createdAt,value
2022-12-28T00:00:23.352Z,28.08
2022-12-28T00:00:53.248Z,28.09
2022-12-28T00:01:23.283Z,28.07
2022-12-28T00:01:53.394Z,28.09
2022-12-28T00:02:23.397Z,28.04
2022-12-28T00:02:53.388Z,28.11
2022-12-28T00:03:23.486Z,28.07
2022-12-28T00:03:53.523Z,28.08
2022-12-28T00:04:23.533Z,28.11
2022-12-28T00:04:53.578Z,28.07
2022-12-28T00:05:23.577Z,28.07
2022-12-28T00:05:53.612Z,28.12
2022-12-28T00:06:23.638Z,28.06
2022-12-28T00:06:53.655Z,28.08
2022-12-28T00:07:23.688Z,28.12
2022-12-28T00:07:53.704Z,28.12
2022-12-28T00:08:23.730Z,28.16
2022-12-28T00:08:53.760Z,28.14
2022-12-28T00:09:23.780Z,28.07
2022-12-28T00:09:53.804Z,28.17
2022-12-28T00:11:07.199Z,28.12
2022-12-28T00:11:07.750Z,28.12
2022-12-28T00:11:27.949Z,28.16
2022-12-28T00:11:53.952Z,28.12
2022-12-28T00:12:23.983Z,28.14
2022-12-28T00:12:54.002Z,28.14
2022-12-28T00:13:24.027Z,28.12
2022-12-28T00:13:54.064Z,28.14
2022-12-28T00:14:24.072Z,28.19
2022-12-28T00:14:54.117Z,28.17
2022-12-28T00:15:24.139Z,28.16
2022-12-28T00:15:54.232Z,28.11
2022-12-28T00:16:24.300Z,28.12
2022-12-28T00:16:54.320Z,28.04
2022-12-28T00:17:24.355Z,28.14
2022-12-28T00:17:54.388Z,28.16
2022-12-28T00:18:24.421Z,28.12
2022-12-28T00:18:54.431Z,28.12
2022-12-28T00:19:24.455Z,28.11
2022-12-28T00:19:54.485Z,28.14
2022-12-28T00:20:24.507Z,28.12
2022-12-28T00:20:54.537Z,28.11
2022-12-28T00:21:24.563Z,28.17
2022-12-28T00:21:54.577Z,28.12
2022-12-28T00:22:24.606Z,28.12
2022-12-28T00:22:54.634Z,28.16
2022-12-28T00:23:24.659Z,28.16
2022-12-28T00:23:57.562Z,28.16
2022-12-28T00:24:24.779Z,28.16
2022-12-28T00:24:54.773Z,28.17
2022-12-28T00:25:24.887Z,28.12
2022-12-28T00:25:55.001Z,28.14
2022-12-28T00:26:25.110Z,28.12
2022-12-28T00:26:55.235Z,28.12
2022-12-28T00:27:25.341Z,28.12
2022-12-28T00:27:55.458Z,28.17
2022-12-28T00:28:25.564Z,28.14
2022-12-28T00:29:01.678Z,28.17
2022-12-28T00:29:25.692Z,28.17
2022-12-28T00:29:55.795Z,28.14
2022-12-28T00:30:25.908Z,28.16
2022-12-28T00:30:56.063Z,28.12
2022-12-28T00:31:26.028Z,28.11
2022-12-28T00:31:56.225Z,28.17
2022-12-28T00:32:26.260Z,28.11
2022-12-28T00:32:56.248Z,28.15
2022-12-28T00:33:26.361Z,28.16
2022-12-28T00:33:56.470Z,28.14
2022-12-28T00:34:26.584Z,28.17
2022-12-28T00:34:56.598Z,28.23
2022-12-28T00:35:26.628Z,28.09
2022-12-28T00:35:56.654Z,28.19
2022-12-28T00:37:09.268Z,28.16
2022-12-28T00:37:09.901Z,28.14
2022-12-28T00:37:26.778Z,28.19
2022-12-28T00:37:56.805Z,28.17
2022-12-28T00:38:26.830Z,28.12
2022-12-28T00:38:56.856Z,28.19
2022-12-28T00:39:26.881Z,28.17
2022-12-28T00:39:56.899Z,28.15
2022-12-28T00:40:26.926Z,28.19
2022-12-28T00:40:56.953Z,28.17
2022-12-28T00:41:26.970Z,28.17
2022-12-28T00:41:57.006Z,28.14
2022-12-28T00:42:27.051Z,28.09
2022-12-28T00:42:57.075Z,28.19
2022-12-28T00:43:27.097Z,28.17
2022-12-28T00:43:57.131Z,28.16
2022-12-28T00:44:27.157Z,28.12
2022-12-28T00:44:57.181Z,28.15
2022-12-28T00:45:27.285Z,28.17
2022-12-28T00:45:57.331Z,28.16
2022-12-28T00:46:27.366Z,28.19
2022-12-28T00:46:57.364Z,28.17
2022-12-28T00:47:27.440Z,28.14
2022-12-28T00:47:57.466Z,28.07
2022-12-28T00:48:27.502Z,28.20
2022-12-28T00:48:57.520Z,28.19
2022-12-28T00:49:27.549Z,28.17
2022-12-28T00:49:57.575Z,28.12
2022-12-28T00:50:27.596Z,28.16
2022-12-28T00:50:57.620Z,28.17
2022-12-28T00:51:27.655Z,28.16
2022-12-28T00:51:57.683Z,28.16
2022-12-28T00:52:27.731Z,28.17
2022-12-28T00:52:57.753Z,28.12
2022-12-28T00:53:27.773Z,28.12
2022-12-28T00:53:57.801Z,28.16
2022-12-28T00:54:27.838Z,28.13
2022-12-28T00:54:57.858Z,28.11
2022-12-28T00:55:27.878Z,28.12
2022-12-28T00:55:57.909Z,28.12
2022-12-28T00:56:27.939Z,28.14
2022-12-28T00:56:57.961Z,28.11
2022-12-28T00:57:28.007Z,28.11
2022-12-28T00:57:58.041Z,28.14
2022-12-28T00:58:28.069Z,28.14
2022-12-28T00:58:58.093Z,28.14
2022-12-28T00:59:28.115Z,28.11
2022-12-28T00:59:58.151Z,28.19
2022-12-28T01:00:28.173Z,28.07
2022-12-28T01:00:58.296Z,28.14
2022-12-28T01:01:28.397Z,28.14
2022-12-28T01:01:58.472Z,28.09
2022-12-28T01:02:28.422Z,28.10
2022-12-28T01:02:58.474Z,28.14
2022-12-28T01:03:28.498Z,28.11
2022-12-28T01:03:58.527Z,28.09
2022-12-28T01:04:28.534Z,28.10
2022-12-28T01:04:58.566Z,28.11
2022-12-28T01:05:28.583Z,28.08
2022-12-28T01:05:58.612Z,28.08
2022-12-28T01:06:28.655Z,28.10
2022-12-28T01:06:58.665Z,28.09
2022-12-28T01:07:28.722Z,28.08
2022-12-28T01:07:58.755Z,28.10
2022-12-28T01:08:28.774Z,28.11
2022-12-28T01:08:58.803Z,28.06
2022-12-28T01:09:28.832Z,28.11
2022-12-28T01:09:58.850Z,28.09
2022-12-28T01:10:28.891Z,28.11
2022-12-28T01:10:58.899Z,28.14
2022-12-28T01:11:28.928Z,28.08
2022-12-28T01:11:58.948Z,28.08
2022-12-28T01:12:31.934Z,28.08
2022-12-28T01:12:59.044Z,28.09
2022-12-28T01:13:29.070Z,28.09
2022-12-28T01:13:59.100Z,28.08
2022-12-28T01:14:29.115Z,28.05
2022-12-28T01:14:59.143Z,28.10
2022-12-28T01:15:29.186Z,28.13
2022-12-28T01:15:59.214Z,28.09
2022-12-28T01:16:29.318Z,28.06
2022-12-28T01:16:59.448Z,28.14
2022-12-28T01:17:29.444Z,28.09
2022-12-28T01:17:59.478Z,28.11
2022-12-28T01:18:29.513Z,28.13
2022-12-28T01:18:59.562Z,28.11
2022-12-28T01:19:29.583Z,28.13
2022-12-28T01:19:59.610Z,28.11
2022-12-28T01:20:29.641Z,28.10
2022-12-28T01:20:59.657Z,28.14
2022-12-28T01:21:29.751Z,28.13
2022-12-28T01:21:59.750Z,28.09
2022-12-28T01:22:29.793Z,28.13
2022-12-28T01:22:59.827Z,28.12
2022-12-28T01:23:29.858Z,28.09
2022-12-28T01:23:59.881Z,28.06
2022-12-28T01:24:29.910Z,28.14
2022-12-28T01:24:59.940Z,28.13
2022-12-28T01:25:29.908Z,28.11
2022-12-28T01:26:00.011Z,28.11
2022-12-28T01:26:30.125Z,28.10
2022-12-28T01:27:00.233Z,28.12
2022-12-28T01:27:30.365Z,28.11
2022-12-28T01:28:00.356Z,28.14
2022-12-28T01:28:30.344Z,28.13
2022-12-28T01:29:00.463Z,28.16
2022-12-28T01:29:30.576Z,28.14
2022-12-28T01:30:00.701Z,28.17
2022-12-28T01:30:30.803Z,28.20
2022-12-28T01:31:00.924Z,28.14
2022-12-28T01:31:31.053Z,28.14
2022-12-28T01:32:01.141Z,28.14
2022-12-28T01:32:31.146Z,28.17
2022-12-28T01:33:01.166Z,28.11
2022-12-28T01:33:31.133Z,28.11
2022-12-28T01:34:01.250Z,28.16
2022-12-28T01:34:31.367Z,28.13
2022-12-28T01:35:01.386Z,28.18
2022-12-28T01:35:31.409Z,28.11
2022-12-28T01:36:01.437Z,28.22
2022-12-28T01:36:31.470Z,28.16
2022-12-28T01:37:01.500Z,28.19
2022-12-28T01:37:31.584Z,28.16
2022-12-28T01:38:01.620Z,28.17
2022-12-28T01:38:31.639Z,28.16
2022-12-28T01:39:01.672Z,28.16
2022-12-28T01:39:31.695Z,28.16
2022-12-28T01:40:01.720Z,28.14
2022-12-28T01:40:31.781Z,28.20
2022-12-28T01:41:01.817Z,28.14
2022-12-28T01:41:31.830Z,28.14
2022-12-28T01:42:01.880Z,28.25
2022-12-28T01:42:31.908Z,28.17
2022-12-28T01:43:01.931Z,28.17
2022-12-28T01:43:31.954Z,28.17
2022-12-28T01:44:01.978Z,28.20
2022-12-28T01:44:32.004Z,28.24
2022-12-28T01:45:02.029Z,28.19
2022-12-28T01:45:32.085Z,28.19
2022-12-28T01:46:02.194Z,28.19
2022-12-28T01:46:32.169Z,28.17
2022-12-28T01:47:02.193Z,28.19
2022-12-28T01:47:32.245Z,28.24
2022-12-28T01:48:02.289Z,28.15
2022-12-28T01:48:32.312Z,28.25
2022-12-28T01:49:02.314Z,28.16
2022-12-28T01:49:32.345Z,28.19
2022-12-28T01:50:02.375Z,28.20
2022-12-28T01:50:32.386Z,28.19
2022-12-28T01:51:02.408Z,28.20
2022-12-28T01:51:32.434Z,28.20
2022-12-28T01:52:02.464Z,28.27
2022-12-28T01:52:32.525Z,28.28
2022-12-28T01:53:02.567Z,28.22
2022-12-28T01:53:32.586Z,28.25
2022-12-28T01:54:02.620Z,28.20
2022-12-28T01:54:32.637Z,28.21
2022-12-28T01:55:02.668Z,28.25
2022-12-28T01:55:32.692Z,28.21
2022-12-28T01:56:02.710Z,28.25
2022-12-28T01:56:32.740Z,28.28
2022-12-28T01:57:02.763Z,28.30
2022-12-28T01:57:32.793Z,28.31
2022-12-28T01:58:02.831Z,28.25
2022-12-28T01:58:32.847Z,28.27
2022-12-28T01:59:02.875Z,28.31
2022-12-28T01:59:32.901Z,28.32
2022-12-28T02:00:02.941Z,28.32
2022-12-28T02:00:32.946Z,28.31
2022-12-28T02:01:03.107Z,28.35
2022-12-28T02:01:33.192Z,28.34
2022-12-28T02:02:03.538Z,28.39
2022-12-28T02:02:33.408Z,28.40
2022-12-28T02:03:03.377Z,28.35
2022-12-28T02:03:33.267Z,28.41
2022-12-28T02:04:03.309Z,28.35
2022-12-28T02:04:33.301Z,28.42
2022-12-28T02:05:03.347Z,28.45
2022-12-28T02:05:33.362Z,28.40
2022-12-28T02:06:03.391Z,28.41
2022-12-28T02:06:33.417Z,28.38
2022-12-28T02:07:03.457Z,28.45
2022-12-28T02:07:33.500Z,28.35
2022-12-28T02:08:03.528Z,28.37
2022-12-28T02:08:33.575Z,28.40
2022-12-28T02:09:03.603Z,28.46
2022-12-28T02:09:33.607Z,28.40
2022-12-28T02:10:42.294Z,28.42
2022-12-28T02:10:44.030Z,28.41
2022-12-28T02:11:03.718Z,28.39
2022-12-28T02:11:33.738Z,28.39
2022-12-28T02:12:03.770Z,28.39
2022-12-28T02:12:33.836Z,28.35
2022-12-28T02:13:03.938Z,28.34
2022-12-28T02:13:33.855Z,28.35
2022-12-28T02:14:03.884Z,28.39
2022-12-28T02:14:33.906Z,28.32
2022-12-28T02:15:03.931Z,28.37
2022-12-28T02:15:33.954Z,28.33
2022-12-28T02:16:03.997Z,28.30
2022-12-28T02:16:34.023Z,28.33
2022-12-28T02:17:04.115Z,28.26
2022-12-28T02:17:34.036Z,28.25
2022-12-28T02:18:04.106Z,28.28
2022-12-28T02:18:34.124Z,28.28
2022-12-28T02:19:04.145Z,28.28
2022-12-28T02:19:34.198Z,28.20
2022-12-28T02:20:04.199Z,28.25
2022-12-28T02:20:34.221Z,28.25
2022-12-28T02:21:04.249Z,28.20
2022-12-28T02:21:34.286Z,28.23
2022-12-28T02:22:04.307Z,28.28
2022-12-28T02:22:34.349Z,28.25
2022-12-28T02:23:04.515Z,28.24
2022-12-28T02:23:34.412Z,28.27
2022-12-28T02:24:04.439Z,28.20
2022-12-28T02:24:34.452Z,28.22
2022-12-28T02:25:13.226Z,28.20
2022-12-28T02:25:34.579Z,28.17
2022-12-28T02:26:04.693Z,28.28
2022-12-28T02:26:34.799Z,28.22
2022-12-28T02:27:04.910Z,28.22
2022-12-28T02:27:35.033Z,28.19
2022-12-28T02:28:05.152Z,28.14
2022-12-28T02:28:35.138Z,28.17
2022-12-28T02:29:05.260Z,28.16
2022-12-28T02:29:35.360Z,28.19
2022-12-28T02:30:05.477Z,28.22
2022-12-28T02:30:35.674Z,28.20
2022-12-28T02:31:05.698Z,28.19
2022-12-28T02:31:35.694Z,28.17
2022-12-28T02:32:05.804Z,28.19
2022-12-28T02:32:35.925Z,28.23
2022-12-28T02:33:06.041Z,28.22
2022-12-28T02:33:36.153Z,28.27
2022-12-28T02:34:06.262Z,28.22
2022-12-28T02:34:36.381Z,28.20
2022-12-28T02:35:06.442Z,28.24
2022-12-28T02:35:36.440Z,28.25
2022-12-28T02:36:06.463Z,28.17
2022-12-28T02:36:36.486Z,28.27
2022-12-28T02:37:06.519Z,28.19
2022-12-28T02:37:36.541Z,28.24
2022-12-28T02:38:06.570Z,28.22
2022-12-28T02:38:36.591Z,28.22
2022-12-28T02:39:06.617Z,28.19
2022-12-28T02:39:36.637Z,28.22
2022-12-28T02:40:06.661Z,28.19
2022-12-28T02:40:36.690Z,28.22
2022-12-28T02:41:06.732Z,28.20
2022-12-28T02:41:36.748Z,28.19
2022-12-28T02:42:06.771Z,28.20
2022-12-28T02:42:36.802Z,28.23
2022-12-28T02:43:06.823Z,28.25
2022-12-28T02:43:36.853Z,28.20
2022-12-28T02:44:06.905Z,28.22
2022-12-28T02:44:36.925Z,28.27
2022-12-28T02:45:06.957Z,28.27
2022-12-28T02:45:36.955Z,28.24
2022-12-28T02:46:07.092Z,28.22
2022-12-28T02:46:37.012Z,28.28
2022-12-28T02:47:07.046Z,28.33
2022-12-28T02:47:37.067Z,28.25
2022-12-28T02:48:07.093Z,28.23
2022-12-28T02:48:37.122Z,28.22
2022-12-28T02:49:07.136Z,28.26
2022-12-28T02:49:37.168Z,28.19
2022-12-28T02:50:07.188Z,28.32
2022-12-28T02:50:37.229Z,28.28
2022-12-28T02:51:07.230Z,28.26
2022-12-28T02:51:37.285Z,28.22
2022-12-28T02:52:07.305Z,28.25
2022-12-28T02:52:37.327Z,28.23
2022-12-28T02:53:07.348Z,28.23
2022-12-28T02:53:37.395Z,28.30
2022-12-28T02:54:07.421Z,28.24
2022-12-28T02:54:37.457Z,28.31
2022-12-28T02:55:07.466Z,28.22
2022-12-28T02:55:37.492Z,28.30
2022-12-28T02:56:07.519Z,28.25
2022-12-28T02:56:37.549Z,28.27
2022-12-28T02:57:07.581Z,28.30
2022-12-28T02:57:37.606Z,28.26
2022-12-28T02:58:07.632Z,28.31
2022-12-28T02:58:37.687Z,28.27
2022-12-28T02:59:07.704Z,28.23
2022-12-28T02:59:37.732Z,28.28
2022-12-28T03:00:07.760Z,28.22
2022-12-28T03:00:37.784Z,28.28
2022-12-28T03:01:07.950Z,28.24
2022-12-28T03:01:37.977Z,28.22
2022-12-28T03:02:08.136Z,28.23
2022-12-28T03:02:38.149Z,28.25
2022-12-28T03:03:08.079Z,28.22
2022-12-28T03:03:38.014Z,28.26
2022-12-28T03:04:08.034Z,28.28
2022-12-28T03:04:38.059Z,28.30
2022-12-28T03:05:08.122Z,28.33
2022-12-28T03:05:38.176Z,28.28
2022-12-28T03:06:08.216Z,28.31
2022-12-28T03:06:38.218Z,28.25
2022-12-28T03:07:08.238Z,28.27
2022-12-28T03:07:38.282Z,28.25
2022-12-28T03:08:08.285Z,28.25
2022-12-28T03:08:38.309Z,28.30
2022-12-28T03:09:08.326Z,28.25
2022-12-28T03:09:38.369Z,28.30
2022-12-28T03:10:08.374Z,28.28
2022-12-28T03:10:38.395Z,28.32
2022-12-28T03:11:08.437Z,28.25
2022-12-28T03:11:38.477Z,28.27
2022-12-28T03:12:08.488Z,28.27
2022-12-28T03:12:38.512Z,28.27
2022-12-28T03:13:08.540Z,28.25
2022-12-28T03:13:38.560Z,28.30
2022-12-28T03:14:08.589Z,28.28
2022-12-28T03:14:38.630Z,28.23
2022-12-28T03:15:08.638Z,28.25
2022-12-28T03:15:38.719Z,28.26
2022-12-28T03:16:08.822Z,28.30
2022-12-28T03:16:38.848Z,28.30
2022-12-28T03:17:08.878Z,28.27
2022-12-28T03:17:38.897Z,28.30
2022-12-28T03:18:08.927Z,28.33
2022-12-28T03:18:38.947Z,28.30
2022-12-28T03:19:08.977Z,28.27
2022-12-28T03:19:39.004Z,28.28
2022-12-28T03:20:09.031Z,28.33
2022-12-28T03:20:39.056Z,28.30
2022-12-28T03:21:09.106Z,28.31
2022-12-28T03:21:39.147Z,28.34
2022-12-28T03:22:09.164Z,28.34
2022-12-28T03:22:39.182Z,28.31
2022-12-28T03:23:09.200Z,28.32
2022-12-28T03:23:39.223Z,28.30
2022-12-28T03:24:09.254Z,28.34
2022-12-28T03:24:39.267Z,28.31
2022-12-28T03:25:09.389Z,28.33
2022-12-28T03:25:39.499Z,28.27
2022-12-28T03:26:09.611Z,28.31
2022-12-28T03:26:39.609Z,28.28
2022-12-28T03:27:09.600Z,28.31
2022-12-28T03:27:39.710Z,28.28
2022-12-28T03:28:09.819Z,28.33
2022-12-28T03:28:39.945Z,28.25
2022-12-28T03:29:10.072Z,28.28
2022-12-28T03:29:40.064Z,28.28
2022-12-28T03:30:10.172Z,28.25
2022-12-28T03:30:40.520Z,28.30
2022-12-28T03:31:10.339Z,28.33
2022-12-28T03:31:40.318Z,28.24
2022-12-28T03:32:10.442Z,28.28
2022-12-28T03:32:40.429Z,28.33
2022-12-28T03:33:10.540Z,28.25
2022-12-28T03:33:40.669Z,28.30
2022-12-28T03:34:10.766Z,28.27
2022-12-28T03:34:40.768Z,28.27
2022-12-28T03:35:10.813Z,28.30
2022-12-28T03:35:40.823Z,28.28
2022-12-28T03:36:10.847Z,28.31
2022-12-28T03:36:40.901Z,28.34
2022-12-28T03:37:10.910Z,28.30
2022-12-28T03:37:40.936Z,28.33
2022-12-28T03:38:10.961Z,28.28
2022-12-28T03:38:40.988Z,28.28
2022-12-28T03:39:11.018Z,28.32
2022-12-28T03:39:41.042Z,28.33
2022-12-28T03:40:11.068Z,28.30
2022-12-28T03:40:41.092Z,28.22
2022-12-28T03:41:11.122Z,28.27
2022-12-28T03:41:41.165Z,28.31
2022-12-28T03:42:11.188Z,28.25
2022-12-28T03:42:41.208Z,28.30
2022-12-28T03:43:11.230Z,28.28
2022-12-28T03:43:41.293Z,28.25
2022-12-28T03:44:11.313Z,28.30
2022-12-28T03:44:41.341Z,28.24
2022-12-28T03:45:11.365Z,28.28
2022-12-28T03:45:45.411Z,28.25
2022-12-28T03:46:11.429Z,28.25
2022-12-28T03:46:41.541Z,28.28
2022-12-28T03:47:11.593Z,28.28
2022-12-28T03:47:41.605Z,28.22
2022-12-28T03:48:11.650Z,28.27
2022-12-28T03:48:41.680Z,28.27
2022-12-28T03:49:11.702Z,28.29
2022-12-28T03:49:41.724Z,28.30
2022-12-28T03:50:11.758Z,28.27
2022-12-28T03:50:41.777Z,28.30
2022-12-28T03:51:11.803Z,28.25
2022-12-28T03:51:41.844Z,28.25
2022-12-28T03:52:11.892Z,28.27
2022-12-28T03:52:41.898Z,28.30
2022-12-28T03:53:11.936Z,28.29
2022-12-28T03:53:41.958Z,28.25
2022-12-28T03:54:11.970Z,28.24
2022-12-28T03:54:42.003Z,28.22
2022-12-28T03:55:12.025Z,28.25
2022-12-28T03:55:42.059Z,28.25
2022-12-28T03:56:12.105Z,28.26
2022-12-28T03:56:42.227Z,28.24
2022-12-28T03:57:12.104Z,28.29
2022-12-28T03:57:42.136Z,28.25
2022-12-28T03:58:12.175Z,28.22
2022-12-28T03:58:42.217Z,28.24
2022-12-28T03:59:12.235Z,28.22
2022-12-28T03:59:42.267Z,28.22
2022-12-28T04:00:12.301Z,28.25
2022-12-28T04:00:42.328Z,28.27
2022-12-28T04:01:12.518Z,28.25
2022-12-28T04:01:42.528Z,28.22
2022-12-28T04:02:12.525Z,28.24
2022-12-28T04:02:42.425Z,28.19
2022-12-28T04:03:12.505Z,28.24
2022-12-28T04:03:42.523Z,28.22
2022-12-28T04:04:12.575Z,28.27
2022-12-28T04:04:42.592Z,28.22
2022-12-28T04:05:12.618Z,28.27
2022-12-28T04:05:42.649Z,28.27
2022-12-28T04:06:12.666Z,28.25
2022-12-28T04:06:42.697Z,28.27
2022-12-28T04:07:12.716Z,28.21
2022-12-28T04:07:42.769Z,28.25
2022-12-28T04:08:12.773Z,28.24
2022-12-28T04:08:42.801Z,28.27
2022-12-28T04:09:12.838Z,28.25
2022-12-28T04:09:42.861Z,28.22
2022-12-28T04:10:12.888Z,28.22
2022-12-28T04:10:42.918Z,28.25
2022-12-28T04:11:12.961Z,28.25
2022-12-28T04:11:42.985Z,28.28
2022-12-28T04:12:13.007Z,28.28
2022-12-28T04:12:43.035Z,28.25
2022-12-28T04:13:13.053Z,28.27
2022-12-28T04:13:43.082Z,28.28
2022-12-28T04:14:13.102Z,28.30
2022-12-28T04:14:43.127Z,28.32
2022-12-28T04:15:13.200Z,28.30
2022-12-28T04:15:43.271Z,28.30
2022-12-28T04:16:13.347Z,28.34
2022-12-28T04:16:43.367Z,28.28
2022-12-28T04:17:13.376Z,28.30
2022-12-28T04:17:43.432Z,28.34
2022-12-28T04:18:13.453Z,28.30
2022-12-28T04:18:43.479Z,28.33
2022-12-28T04:19:13.501Z,28.33
2022-12-28T04:19:43.526Z,28.34
2022-12-28T04:20:13.556Z,28.38
2022-12-28T04:20:43.573Z,28.32
2022-12-28T04:21:13.614Z,28.25
2022-12-28T04:21:43.656Z,28.36
2022-12-28T04:22:13.665Z,28.33
2022-12-28T04:22:43.694Z,28.33
2022-12-28T04:23:13.738Z,28.36
2022-12-28T04:23:43.743Z,28.31
2022-12-28T04:24:13.776Z,28.30
2022-12-28T04:24:43.779Z,28.34
2022-12-28T04:25:13.768Z,28.32
2022-12-28T04:25:43.881Z,28.34
2022-12-28T04:26:14.007Z,28.36
2022-12-28T04:26:44.109Z,28.32
2022-12-28T04:27:14.238Z,28.33
2022-12-28T04:27:44.336Z,28.33
2022-12-28T04:28:14.441Z,28.31
2022-12-28T04:28:44.549Z,28.32
2022-12-28T04:29:14.663Z,28.32
2022-12-28T04:29:44.738Z,28.33
2022-12-28T04:30:14.732Z,28.28
2022-12-28T04:30:44.843Z,28.28
2022-12-28T04:31:14.991Z,28.30
2022-12-28T04:31:45.056Z,28.30
2022-12-28T04:32:15.037Z,28.32
2022-12-28T04:32:45.156Z,28.32
2022-12-28T04:33:15.272Z,28.28
2022-12-28T04:33:45.411Z,28.33
2022-12-28T04:34:15.373Z,28.32
2022-12-28T04:34:48.783Z,28.36
2022-12-28T04:35:15.450Z,28.27
2022-12-28T04:35:45.475Z,28.32
2022-12-28T04:36:15.498Z,28.35
2022-12-28T04:36:45.530Z,28.32
2022-12-28T04:37:15.555Z,28.38
2022-12-28T04:37:45.624Z,28.32
2022-12-28T04:38:15.662Z,28.29
2022-12-28T04:38:45.664Z,28.29
2022-12-28T04:39:15.689Z,28.32
2022-12-28T04:39:54.941Z,28.31
2022-12-28T04:40:15.761Z,28.34
2022-12-28T04:40:45.788Z,28.30
2022-12-28T04:41:15.807Z,28.30
2022-12-28T04:41:45.838Z,28.29
2022-12-28T04:42:15.856Z,28.29
2022-12-28T04:42:45.875Z,28.21
2022-12-28T04:43:15.911Z,28.24
2022-12-28T04:43:45.924Z,28.30
2022-12-28T04:44:15.951Z,28.30
2022-12-28T04:44:46.006Z,28.27
2022-12-28T04:45:21.758Z,28.30
2022-12-28T04:45:46.076Z,28.32
2022-12-28T04:46:16.151Z,28.30
2022-12-28T04:46:46.246Z,28.32
2022-12-28T04:47:16.303Z,28.29
2022-12-28T04:47:46.304Z,28.27
2022-12-28T04:48:16.330Z,28.29
2022-12-28T04:48:46.365Z,28.24
2022-12-28T04:49:16.392Z,28.29
2022-12-28T04:49:46.430Z,28.29
2022-12-28T04:50:16.457Z,28.32
2022-12-28T04:50:46.522Z,28.25
2022-12-28T04:51:16.547Z,28.27
2022-12-28T04:51:46.573Z,28.27
2022-12-28T04:52:16.590Z,28.27
2022-12-28T04:52:46.623Z,28.25
2022-12-28T04:53:16.646Z,28.24
2022-12-28T04:53:46.691Z,28.27
2022-12-28T04:54:16.692Z,28.26
2022-12-28T04:54:46.744Z,28.26
2022-12-28T04:55:32.053Z,28.21
2022-12-28T04:55:46.801Z,28.27
2022-12-28T04:56:16.831Z,28.25
2022-12-28T04:56:46.856Z,28.34
2022-12-28T04:57:16.873Z,28.31
2022-12-28T04:57:46.899Z,28.29
2022-12-28T04:58:16.924Z,28.27
2022-12-28T04:58:47.006Z,28.34
2022-12-28T04:59:17.021Z,28.25
2022-12-28T04:59:47.087Z,28.27
2022-12-28T05:00:17.117Z,28.27
2022-12-28T05:00:47.146Z,28.34
2022-12-28T05:01:17.294Z,28.31
2022-12-28T05:01:47.327Z,28.24
2022-12-28T05:02:17.387Z,28.31
2022-12-28T05:02:47.467Z,28.27
2022-12-28T05:03:17.339Z,28.30
2022-12-28T05:03:54.472Z,28.29
2022-12-28T05:04:17.410Z,28.25
2022-12-28T05:04:47.439Z,28.33
2022-12-28T05:05:17.476Z,28.29
2022-12-28T05:05:47.496Z,28.32
2022-12-28T05:06:17.522Z,28.30
2022-12-28T05:06:47.571Z,28.28
2022-12-28T05:07:17.594Z,28.32
2022-12-28T05:07:47.620Z,28.29
2022-12-28T05:08:17.649Z,28.29
2022-12-28T05:08:47.667Z,28.36
2022-12-28T05:09:17.729Z,28.36
2022-12-28T05:09:47.723Z,28.33
2022-12-28T05:10:17.751Z,28.33
2022-12-28T05:10:47.778Z,28.30
2022-12-28T05:11:17.802Z,28.32
2022-12-28T05:11:47.845Z,28.36
2022-12-28T05:12:17.871Z,28.32
2022-12-28T05:12:47.899Z,28.36
2022-12-28T05:13:17.929Z,28.33
2022-12-28T05:13:47.955Z,28.30
2022-12-28T05:14:17.987Z,28.33
2022-12-28T05:14:47.999Z,28.32
2022-12-28T05:15:18.054Z,28.38
2022-12-28T05:15:48.155Z,28.32
2022-12-28T05:16:18.212Z,28.28
2022-12-28T05:16:48.239Z,28.33
2022-12-28T05:17:18.267Z,28.32
2022-12-28T05:17:48.294Z,28.35
2022-12-28T05:18:18.316Z,28.34
2022-12-28T05:18:48.358Z,28.33
2022-12-28T05:19:18.366Z,28.33
2022-12-28T05:19:48.396Z,28.40
2022-12-28T05:20:18.417Z,28.35
2022-12-28T05:20:48.443Z,28.36
2022-12-28T05:21:18.498Z,28.35
2022-12-28T05:21:48.522Z,28.36
2022-12-28T05:22:18.547Z,28.34
2022-12-28T05:22:48.588Z,28.35
2022-12-28T05:23:18.606Z,28.40
2022-12-28T05:23:48.634Z,28.38
2022-12-28T05:24:18.649Z,28.29
2022-12-28T05:24:48.672Z,28.38
2022-12-28T05:25:18.792Z,28.38
2022-12-28T05:25:48.814Z,28.32
2022-12-28T05:26:18.822Z,28.36
2022-12-28T05:26:48.928Z,28.38
2022-12-28T05:27:19.043Z,28.34
2022-12-28T05:27:49.145Z,28.32
2022-12-28T05:28:19.258Z,28.38
2022-12-28T05:28:49.370Z,28.32
2022-12-28T05:29:19.487Z,28.34
2022-12-28T05:29:49.595Z,28.32
2022-12-28T05:30:19.750Z,28.32
2022-12-28T05:30:49.741Z,28.35
2022-12-28T05:31:19.895Z,28.35
2022-12-28T05:31:49.862Z,28.32
2022-12-28T05:32:19.972Z,28.35
2022-12-28T05:32:50.078Z,28.36
2022-12-28T05:33:20.201Z,28.33
2022-12-28T05:33:50.377Z,28.36
2022-12-28T05:34:20.329Z,28.35
2022-12-28T05:34:50.348Z,28.33
2022-12-28T05:35:20.368Z,28.33
2022-12-28T05:35:50.405Z,28.35
2022-12-28T05:36:20.448Z,28.30
2022-12-28T05:36:50.475Z,28.30
2022-12-28T05:37:22.343Z,28.36
2022-12-28T05:37:50.587Z,28.38
2022-12-28T05:38:20.623Z,28.34
2022-12-28T05:38:50.644Z,28.36
2022-12-28T05:39:20.670Z,28.36
2022-12-28T05:39:50.751Z,28.35
2022-12-28T05:40:20.747Z,28.33
2022-12-28T05:40:50.771Z,28.38
2022-12-28T05:41:20.804Z,28.36
2022-12-28T05:41:50.837Z,28.36
2022-12-28T05:42:20.860Z,28.41
2022-12-28T05:42:51.735Z,28.35
2022-12-28T05:43:20.996Z,28.35
2022-12-28T05:43:51.020Z,28.35
2022-12-28T05:44:21.048Z,28.33
2022-12-28T05:44:51.060Z,28.36
2022-12-28T05:45:21.090Z,28.38
2022-12-28T05:45:51.124Z,28.38
2022-12-28T05:46:21.271Z,28.40
2022-12-28T05:46:51.292Z,28.41
2022-12-28T05:47:21.332Z,28.38
2022-12-28T05:47:51.359Z,28.38
2022-12-28T05:48:21.382Z,28.43
2022-12-28T05:48:51.442Z,28.36
2022-12-28T05:49:21.450Z,28.41
2022-12-28T05:49:51.474Z,28.38
2022-12-28T05:50:21.502Z,28.46
2022-12-28T05:50:54.838Z,28.41
2022-12-28T05:51:21.603Z,28.41
2022-12-28T05:51:51.628Z,28.47
2022-12-28T05:52:21.644Z,28.42
2022-12-28T05:52:51.663Z,28.41
2022-12-28T05:53:21.686Z,28.47
2022-12-28T05:53:51.710Z,28.44
2022-12-28T05:54:21.731Z,28.44
2022-12-28T05:54:51.758Z,28.46
2022-12-28T05:55:21.809Z,28.46
2022-12-28T05:55:51.840Z,28.47
2022-12-28T05:56:21.859Z,28.49
2022-12-28T05:56:51.884Z,28.46
2022-12-28T05:57:21.908Z,28.49
2022-12-28T05:57:51.926Z,28.47
2022-12-28T05:58:21.949Z,28.42
2022-12-28T05:58:51.969Z,28.46
2022-12-28T05:59:22.004Z,28.43
2022-12-28T05:59:52.031Z,28.43
2022-12-28T06:00:22.058Z,28.46
2022-12-28T06:00:52.086Z,28.46
2022-12-28T06:01:22.183Z,28.46
2022-12-28T06:01:52.395Z,28.47
2022-12-28T06:02:24.824Z,28.43
2022-12-28T06:02:52.279Z,28.43
2022-12-28T06:03:22.345Z,28.46
2022-12-28T06:03:52.323Z,28.46
2022-12-28T06:04:22.336Z,28.51
2022-12-28T06:04:52.354Z,28.46
2022-12-28T06:05:22.380Z,28.52
2022-12-28T06:05:52.428Z,28.46
2022-12-28T06:06:22.450Z,28.46
2022-12-28T06:06:52.468Z,28.46
2022-12-28T06:07:22.495Z,28.48
2022-12-28T06:07:52.517Z,28.46
2022-12-28T06:08:22.923Z,28.49
2022-12-28T06:08:52.545Z,28.46
2022-12-28T06:09:22.573Z,28.52
2022-12-28T06:09:52.611Z,28.46
2022-12-28T06:10:22.617Z,28.44
2022-12-28T06:10:52.666Z,28.47
2022-12-28T06:11:22.683Z,28.42
2022-12-28T06:11:52.724Z,28.49
2022-12-28T06:12:22.748Z,28.46
2022-12-28T06:12:52.771Z,28.44
2022-12-28T06:13:22.826Z,28.44
2022-12-28T06:13:52.852Z,28.54
2022-12-28T06:14:22.879Z,28.49
2022-12-28T06:14:52.902Z,28.53
2022-12-28T06:15:22.922Z,28.52
2022-12-28T06:15:52.967Z,28.54
2022-12-28T06:16:23.018Z,28.47
2022-12-28T06:16:53.174Z,28.49
2022-12-28T06:17:23.104Z,28.47
2022-12-28T06:17:53.126Z,28.50
2022-12-28T06:18:23.155Z,28.54
2022-12-28T06:18:53.184Z,28.52
2022-12-28T06:19:23.203Z,28.50
2022-12-28T06:19:53.227Z,28.49
2022-12-28T06:20:23.247Z,28.52
2022-12-28T06:20:57.010Z,28.50
2022-12-28T06:21:23.341Z,28.52
2022-12-28T06:21:53.351Z,28.52
2022-12-28T06:22:23.385Z,28.50
2022-12-28T06:22:53.398Z,28.53
2022-12-28T06:23:23.423Z,28.52
2022-12-28T06:23:53.444Z,28.50
2022-12-28T06:24:23.474Z,28.53
2022-12-28T06:24:53.590Z,28.55
2022-12-28T06:25:23.713Z,28.57
2022-12-28T06:25:53.837Z,28.53
2022-12-28T06:26:23.968Z,28.53
2022-12-28T06:26:54.058Z,28.54